Schurz, Nevada
Current Conditions -  °F | °C
As of 2:56 AM on Thursday 27 Nov 2014 (Local Time) from KNFL Reporting Station
Clear Clear  
Wind Chill: 41°   Ceiling: Unl
Heat Index: 41°   Visibility: 10mi
Dew Point: 23°   Wind: 3mph
Humidity: 49%   Direction: 180°S
Pressure: 30.26"   Gusts: NA
Location:  38.95°N, 118.81°W
Report Text: KNFL 271056Z AUTO 18003KT 10SM CLR 05/M05 A3026 RMK AO2 SLP208 T00501050
Loading
Personal Weather Stations






























Interactive Weather Map New forecast layout! Learn more

10-Day Weather Forecast

Advertisements
Track Severe Weather on mobile